Time;durP1;ratioP1;P1;durP2;ratioP2;P2;SDS_P1;SDS_P2;PMS_P1;PMS_P2;Temp;Humidity;BMP_temperature;BMP_pressure;BME280_temperature;BME280_humidity;BME280_pressure;Samples;Min_cycle;Max_cycle;Signal;HPM_P1;HPM_P2
2021/10/01 00:02:18;;;;;;;5.88;2.35;;;10.10;99.90;;;;;;5094316;28;20046;-68
2021/10/01 00:04:44;;;;;;;5.90;2.33;;;9.90;99.90;;;;;;5093152;28;20039;-69
2021/10/01 00:07:11;;;;;;;6.38;2.58;;;9.80;99.90;;;;;;5094602;28;20402;-69
2021/10/01 00:09:38;;;;;;;6.57;2.15;;;9.70;99.90;;;;;;5093068;28;20472;-69
2021/10/01 00:12:06;;;;;;;6.22;2.08;;;9.70;99.90;;;;;;5092857;28;20032;-69
2021/10/01 00:14:33;;;;;;;4.22;2.30;;;9.50;99.90;;;;;;5093127;28;20173;-68
2021/10/01 00:17:00;;;;;;;6.78;2.20;;;9.40;99.90;;;;;;5094445;28;20115;-68
2021/10/01 00:19:26;;;;;;;9.20;2.30;;;9.40;99.90;;;;;;5092659;28;20028;-69
2021/10/01 00:21:52;;;;;;;8.05;1.90;;;9.50;99.90;;;;;;5094410;28;20078;-68
2021/10/01 00:24:18;;;;;;;4.15;2.05;;;9.20;99.90;;;;;;5092710;28;20024;-68
2021/10/01 00:26:44;;;;;;;6.38;1.90;;;9.10;99.90;;;;;;5093032;28;20032;-69
2021/10/01 00:29:11;;;;;;;7.82;1.90;;;9.00;99.90;;;;;;5093951;28;20017;-68
2021/10/01 00:31:37;;;;;;;6.25;2.08;;;9.10;99.90;;;;;;5093746;28;20392;-68
2021/10/01 00:34:04;;;;;;;4.57;1.88;;;9.20;99.90;;;;;;5076034;28;20119;-69
2021/10/01 00:36:30;;;;;;;3.75;1.88;;;9.30;99.90;;;;;;5094032;28;20036;-68
2021/10/01 00:38:58;;;;;;;4.97;1.83;;;9.30;99.90;;;;;;5092702;28;20024;-68
2021/10/01 00:41:26;;;;;;;7.93;1.70;;;9.30;99.90;;;;;;5092795;28;20028;-68
2021/10/01 00:43:52;;;;;;;5.43;1.70;;;9.40;99.90;;;;;;5092223;28;20028;-68
2021/10/01 00:46:18;;;;;;;5.93;1.65;;;9.40;99.90;;;;;;5093574;28;20554;-68
2021/10/01 00:48:44;;;;;;;7.75;1.52;;;9.40;99.90;;;;;;5092200;28;20032;-68
2021/10/01 00:51:12;;;;;;;4.63;2.13;;;9.40;99.90;;;;;;5093799;28;20115;-68
2021/10/01 00:53:38;;;;;;;8.90;2.15;;;9.40;99.90;;;;;;5090823;28;20038;-68
2021/10/01 00:56:04;;;;;;;4.90;2.00;;;9.40;99.90;;;;;;5092124;28;20400;-68
2021/10/01 00:58:31;;;;;;;5.13;2.03;;;9.10;99.90;;;;;;5093398;28;20052;-68
2021/10/01 01:03:31;;;;;;;4.90;1.88;;;9.10;99.90;;;;;;5093057;28;20036;-68
2021/10/01 01:06:29;;;;;;;5.50;1.60;;;9.10;99.90;;;;;;5092350;28;20112;-68
2021/10/01 01:09:14;;;;;;;6.40;1.70;;;9.10;99.90;;;;;;5091920;28;20028;-68
2021/10/01 01:12:08;;;;;;;5.45;1.73;;;9.30;99.90;;;;;;5091772;28;20077;-68
2021/10/01 01:15:17;;;;;;;6.65;1.90;;;9.30;99.90;;;;;;5093195;28;20115;-69
2021/10/01 01:17:47;;;;;;;4.13;2.25;;;9.30;99.90;;;;;;5080398;28;20051;-68
2021/10/01 01:20:30;;;;;;;6.65;2.13;;;9.30;99.90;;;;;;5092897;28;20387;-69
2021/10/01 01:23:31;;;;;;;6.78;1.75;;;9.30;99.90;;;;;;5091850;28;20055;-68
2021/10/01 01:26:29;;;;;;;7.75;2.42;;;9.20;99.90;;;;;;5092836;28;20139;-69
2021/10/01 01:29:10;;;;;;;10.52;3.08;;;9.20;99.90;;;;;;5093183;28;20032;-68
2021/10/01 01:31:46;;;;;;;5.88;2.85;;;9.20;99.90;;;;;;5092779;28;20040;-69
2021/10/01 01:34:39;;;;;;;10.13;3.75;;;9.30;99.90;;;;;;5092899;28;20414;-69
2021/10/01 01:37:19;;;;;;;7.55;3.22;;;9.40;99.90;;;;;;5083637;28;20040;-69
2021/10/01 01:39:48;;;;;;;9.43;3.67;;;9.40;99.90;;;;;;5091532;28;20036;-69
2021/10/01 01:42:15;;;;;;;7.50;3.42;;;9.50;99.90;;;;;;5091724;28;20126;-69
2021/10/01 01:44:42;;;;;;;6.13;3.08;;;9.60;99.90;;;;;;5091208;28;20039;-69
2021/10/01 01:47:08;;;;;;;7.82;4.07;;;9.70;99.90;;;;;;5092429;28;20197;-69
2021/10/01 01:49:35;;;;;;;7.32;3.63;;;9.60;99.90;;;;;;5091449;28;20043;-69
2021/10/01 01:52:04;;;;;;;8.73;3.55;;;9.50;99.90;;;;;;5091288;28;20032;-69
2021/10/01 01:54:31;;;;;;;8.20;4.07;;;9.40;99.90;;;;;;5091241;28;20020;-69
2021/10/01 01:56:58;;;;;;;6.75;3.63;;;9.20;99.90;;;;;;5091344;28;20043;-69
2021/10/01 01:59:26;;;;;;;7.38;4.80;;;9.10;99.90;;;;;;5091203;28;20032;-69
2021/10/01 02:01:56;;;;;;;10.20;4.47;;;9.20;99.90;;;;;;5091058;28;20032;-69
2021/10/01 02:04:24;;;;;;;8.13;4.70;;;9.30;99.90;;;;;;5091202;28;20064;-69
2021/10/01 02:06:50;;;;;;;11.07;4.32;;;9.40;99.90;;;;;;5090863;28;20115;-69
2021/10/01 02:09:18;;;;;;;8.23;3.67;;;9.40;99.90;;;;;;5074392;28;20034;-69
2021/10/01 02:11:46;;;;;;;8.32;3.92;;;9.30;99.90;;;;;;5090923;28;20070;-69
2021/10/01 02:14:17;;;;;;;7.68;3.53;;;9.30;99.90;;;;;;5090980;28;20024;-69
2021/10/01 02:16:46;;;;;;;6.82;3.50;;;9.30;99.90;;;;;;5091159;28;20046;-69
2021/10/01 02:19:12;;;;;;;9.30;3.38;;;9.50;99.90;;;;;;5091086;28;20040;-69
2021/10/01 02:21:39;;;;;;;7.55;3.85;;;9.50;99.90;;;;;;5090986;28;20036;-69
2021/10/01 02:24:05;;;;;;;6.32;3.63;;;9.50;99.90;;;;;;5092297;28;20613;-69
2021/10/01 02:26:55;;;;;;;9.70;3.42;;;9.40;99.90;;;;;;5092575;28;20032;-69
2021/10/01 02:30:11;;;;;;;9.07;2.97;;;9.30;99.90;;;;;;5076345;28;20051;-69
2021/10/01 02:33:01;;;;;;;7.00;2.40;;;9.30;99.90;;;;;;5090941;28;20425;-69
2021/10/01 02:35:27;;;;;;;10.15;2.72;;;9.40;99.90;;;;;;5090693;28;20036;-70
2021/10/01 02:37:53;;;;;;;4.28;2.10;;;9.40;99.90;;;;;;5092592;28;20456;-69
2021/10/01 02:40:21;;;;;;;4.68;2.03;;;9.30;99.90;;;;;;5096844;28;20020;-69
2021/10/01 02:42:47;;;;;;;5.75;1.77;;;9.30;99.90;;;;;;5095118;28;20047;-69
2021/10/01 02:45:13;;;;;;;5.88;2.03;;;9.20;99.90;;;;;;5095610;28;20485;-69
2021/10/01 02:47:40;;;;;;;7.50;2.20;;;9.00;99.90;;;;;;5096298;28;20485;-69
2021/10/01 02:50:17;;;;;;;8.68;2.78;;;8.90;99.90;;;;;;5096413;28;20035;-69
2021/10/01 02:52:54;;;;;;;5.68;2.70;;;8.90;99.90;;;;;;5094682;28;20036;-69
2021/10/01 02:56:12;;;;;;;6.00;2.42;;;8.90;99.90;;;;;;5094771;28;20047;-69
2021/10/01 02:58:51;;;;;;;7.28;3.38;;;8.90;99.90;;;;;;5095745;28;20024;-69
2021/10/01 03:01:17;;;;;;;6.60;4.55;;;8.80;99.90;;;;;;5094578;28;20035;-69
2021/10/01 03:03:47;;;;;;;10.75;4.97;;;8.80;99.90;;;;;;5094681;28;20067;-69
2021/10/01 03:06:17;;;;;;;13.82;4.95;;;8.80;99.90;;;;;;5094388;28;20082;-69
2021/10/01 03:08:43;;;;;;;7.43;3.63;;;8.80;99.90;;;;;;5094315;28;20032;-70
2021/10/01 03:11:10;;;;;;;6.88;3.58;;;8.70;99.90;;;;;;5094137;28;20036;-69
2021/10/01 03:13:43;;;;;;;6.25;2.80;;;8.70;99.90;;;;;;5095549;28;20032;-69
2021/10/01 03:16:11;;;;;;;9.05;3.88;;;8.60;99.90;;;;;;5094117;28;20062;-69
2021/10/01 03:18:37;;;;;;;9.38;3.00;;;8.60;99.90;;;;;;5094554;28;20102;-69
2021/10/01 03:21:06;;;;;;;6.03;3.10;;;8.50;99.90;;;;;;5094173;28;20051;-69
2021/10/01 03:23:32;;;;;;;9.63;3.22;;;8.30;99.90;;;;;;5095584;28;20032;-69
2021/10/01 03:25:59;;;;;;;4.80;2.40;;;8.30;99.90;;;;;;5077068;28;20050;-69
2021/10/01 03:28:25;;;;;;;6.70;2.55;;;8.20;99.90;;;;;;5093917;28;20111;-69
2021/10/01 03:30:51;;;;;;;9.90;3.65;;;8.20;99.90;;;;;;5094023;28;20032;-69
2021/10/01 03:33:18;;;;;;;6.30;2.50;;;8.10;99.90;;;;;;5077074;28;20024;-70
2021/10/01 03:35:46;;;;;;;7.07;2.70;;;8.20;99.90;;;;;;5095121;28;20059;-69
2021/10/01 03:38:13;;;;;;;6.28;2.28;;;8.20;99.90;;;;;;5076547;28;20024;-69
2021/10/01 03:40:46;;;;;;;3.70;2.03;;;8.10;99.90;;;;;;5078928;28;20032;-69
2021/10/01 03:43:14;;;;;;;5.13;2.40;;;8.20;99.90;;;;;;5073475;28;20041;-69
2021/10/01 03:45:40;;;;;;;6.95;2.45;;;8.20;99.90;;;;;;5076873;28;20048;-69
2021/10/01 03:48:06;;;;;;;6.85;2.10;;;8.20;99.90;;;;;;5081296;28;20032;-69
2021/10/01 03:50:34;;;;;;;7.45;2.50;;;8.10;99.90;;;;;;5074444;28;20039;-69
2021/10/01 03:53:01;;;;;;;7.80;2.70;;;8.10;99.90;;;;;;5083232;28;20036;-67
2021/10/01 03:55:27;;;;;;;6.28;2.60;;;7.90;99.90;;;;;;5084428;28;20103;-68
2021/10/01 03:57:53;;;;;;;6.53;2.50;;;7.90;99.90;;;;;;5089987;28;20028;-68
2021/10/01 04:00:20;;;;;;;5.55;2.60;;;7.80;99.90;;;;;;5087741;28;20059;-68
2021/10/01 04:02:46;;;;;;;7.07;2.72;;;7.70;99.90;;;;;;5092988;28;20028;-68
2021/10/01 04:05:16;;;;;;;9.25;2.40;;;7.50;99.90;;;;;;5093196;28;20028;-66
2021/10/01 04:07:43;;;;;;;4.75;2.53;;;7.40;99.90;;;;;;5093967;28;20400;-67
2021/10/01 04:10:11;;;;;;;4.45;2.33;;;7.30;99.90;;;;;;5076400;28;20028;-67
2021/10/01 04:12:37;;;;;;;5.75;2.33;;;7.30;99.90;;;;;;5094184;28;20064;-66
2021/10/01 04:15:04;;;;;;;7.28;2.47;;;7.30;99.90;;;;;;5090257;28;20158;-67
2021/10/01 04:17:30;;;;;;;3.58;1.98;;;7.20;99.90;;;;;;5072837;28;20086;-67
2021/10/01 04:19:57;;;;;;;6.25;2.35;;;7.10;99.90;;;;;;5074010;28;20481;-68
2021/10/01 04:22:23;;;;;;;8.13;3.10;;;7.10;99.90;;;;;;5073806;28;20466;-67
2021/10/01 04:24:49;;;;;;;14.65;4.80;;;7.10;99.90;;;;;;5072412;28;20123;-68
2021/10/01 04:27:15;;;;;;;8.43;3.63;;;7.90;99.90;;;;;;5056091;28;20034;-68
2021/10/01 04:29:42;;;;;;;6.15;2.95;;;8.00;99.90;;;;;;5074028;28;20024;-68
2021/10/01 04:32:09;;;;;;;5.28;2.85;;;7.80;99.90;;;;;;5073672;28;20477;-68
2021/10/01 04:34:44;;;;;;;6.22;3.20;;;7.70;99.90;;;;;;5073890;28;20032;-68
2021/10/01 04:37:10;;;;;;;7.97;2.40;;;7.70;99.90;;;;;;5073794;28;20035;-67
2021/10/01 04:39:35;;;;;;;4.90;2.00;;;7.70;99.90;;;;;;5072557;28;20025;-68
2021/10/01 04:42:01;;;;;;;10.98;2.95;;;7.70;99.90;;;;;;5071934;28;20141;-67
2021/10/01 04:44:27;;;;;;;4.95;2.00;;;7.60;99.90;;;;;;5073345;28;20024;-67
2021/10/01 04:46:53;;;;;;;10.15;5.05;;;7.70;99.90;;;;;;5092187;28;20423;-66
2021/10/01 04:49:19;;;;;;;19.50;9.00;;;7.60;99.90;;;;;;5093484;28;20389;-67
2021/10/01 04:51:45;;;;;;;17.92;6.15;;;7.70;99.90;;;;;;5093126;28;20032;-67
2021/10/01 04:54:10;;;;;;;15.43;6.57;;;7.70;99.90;;;;;;5065149;28;20599;-68
2021/10/01 04:56:36;;;;;;;24.50;13.45;;;7.80;99.90;;;;;;5092407;28;20028;-68
2021/10/01 04:59:02;;;;;;;7.53;3.50;;;7.90;99.90;;;;;;5093494;28;20469;-67
2021/10/01 05:01:28;;;;;;;9.05;3.22;;;7.90;99.90;;;;;;5107973;28;20032;-68
2021/10/01 05:03:54;;;;;;;5.00;1.60;;;7.90;99.90;;;;;;5093250;28;20114;-68
2021/10/01 05:06:19;;;;;;;4.47;1.70;;;8.00;99.90;;;;;;5091874;28;20140;-69
2021/10/01 05:08:45;;;;;;;5.50;2.05;;;8.00;99.90;;;;;;5083805;28;20072;-67
2021/10/01 05:11:11;;;;;;;4.82;1.60;;;8.10;99.90;;;;;;5039259;28;20041;-69
2021/10/01 05:13:37;;;;;;;6.07;2.10;;;8.00;99.90;;;;;;5080164;28;20031;-67
2021/10/01 05:16:03;;;;;;;6.15;2.20;;;8.10;99.90;;;;;;5072700;28;20028;-68
2021/10/01 05:18:30;;;;;;;4.47;2.10;;;8.00;99.90;;;;;;5073023;28;20035;-68
2021/10/01 05:21:02;;;;;;;4.72;2.28;;;7.90;99.90;;;;;;5071250;28;20460;-68
2021/10/01 05:23:30;;;;;;;8.93;1.75;;;7.80;99.90;;;;;;5072552;28;20040;-68
2021/10/01 05:25:56;;;;;;;4.07;2.00;;;7.90;99.90;;;;;;5071170;28;20035;-68
2021/10/01 05:28:22;;;;;;;5.18;1.95;;;7.90;99.90;;;;;;5088042;28;20029;-68
2021/10/01 05:30:48;;;;;;;6.43;1.67;;;8.00;99.90;;;;;;5078221;28;20024;-68
2021/10/01 05:33:14;;;;;;;4.50;1.75;;;8.10;99.90;;;;;;5075141;28;20485;-68
2021/10/01 05:35:45;;;;;;;8.20;1.70;;;8.10;99.90;;;;;;5054545;28;20090;-68
2021/10/01 05:38:14;;;;;;;6.57;1.58;;;8.10;99.90;;;;;;5072515;28;20028;-68
2021/10/01 05:40:42;;;;;;;5.40;1.95;;;8.10;99.90;;;;;;5072365;28;20032;-70
2021/10/01 05:43:08;;;;;;;3.15;1.45;;;8.20;99.90;;;;;;5072056;28;20036;-68
2021/10/01 05:45:34;;;;;;;6.95;1.60;;;8.10;99.90;;;;;;5070682;28;20029;-68
2021/10/01 05:48:01;;;;;;;4.07;2.13;;;8.20;99.90;;;;;;5070669;28;20039;-68
2021/10/01 05:50:30;;;;;;;9.00;2.25;;;8.10;99.90;;;;;;5072324;28;20033;-67
2021/10/01 05:53:03;;;;;;;6.30;1.98;;;8.30;99.90;;;;;;5071764;28;20078;-68
2021/10/01 05:55:29;;;;;;;6.28;2.47;;;8.30;99.90;;;;;;5072128;28;20370;-68
2021/10/01 05:57:55;;;;;;;6.85;2.25;;;8.30;99.90;;;;;;5070760;28;20059;-68
2021/10/01 06:00:22;;;;;;;4.80;1.48;;;8.30;99.90;;;;;;5071867;28;20028;-69
2021/10/01 06:02:48;;;;;;;6.70;1.90;;;8.40;99.90;;;;;;5086139;28;20039;-69
2021/10/01 06:05:15;;;;;;;9.88;1.75;;;8.40;99.90;;;;;;5090001;28;20032;-69
2021/10/01 06:07:42;;;;;;;11.45;2.13;;;8.40;99.90;;;;;;5090817;28;20077;-68
2021/10/01 06:10:09;;;;;;;7.70;1.92;;;8.50;99.90;;;;;;5091864;28;20332;-68
2021/10/01 06:12:36;;;;;;;8.40;2.25;;;8.40;99.90;;;;;;5089951;28;20028;-68
2021/10/01 06:15:03;;;;;;;7.32;2.50;;;8.30;99.90;;;;;;5091401;28;20039;-68
2021/10/01 06:17:28;;;;;;;10.15;1.85;;;8.20;99.90;;;;;;5090751;28;20531;-67
2021/10/01 06:19:54;;;;;;;6.63;2.25;;;8.20;99.90;;;;;;5090927;28;20036;-67
2021/10/01 06:22:20;;;;;;;7.53;2.10;;;8.20;99.90;;;;;;5091834;28;20489;-68
2021/10/01 06:24:48;;;;;;;12.40;2.05;;;8.20;99.90;;;;;;5092424;28;20032;-67
2021/10/01 06:27:18;;;;;;;5.55;1.88;;;8.20;99.90;;;;;;5092408;28;20047;-68
2021/10/01 06:29:45;;;;;;;4.30;1.65;;;8.30;99.90;;;;;;5091116;28;20082;-68
2021/10/01 06:32:11;;;;;;;7.05;1.92;;;8.20;99.90;;;;;;5091788;28;20062;-68
2021/10/01 06:34:37;;;;;;;9.57;2.40;;;8.30;99.90;;;;;;5073972;28;20028;-68
2021/10/01 06:37:03;;;;;;;6.82;2.03;;;8.40;99.90;;;;;;5091934;28;20036;-68
2021/10/01 06:39:29;;;;;;;6.97;2.00;;;8.50;99.90;;;;;;5090613;28;20052;-68
2021/10/01 06:41:54;;;;;;;11.50;1.88;;;8.60;99.90;;;;;;5090912;28;20141;-68
2021/10/01 06:44:25;;;;;;;5.97;2.00;;;8.60;99.90;;;;;;5092147;28;20457;-68
2021/10/01 06:46:55;;;;;;;7.82;2.05;;;8.60;99.90;;;;;;5091778;28;20094;-68
2021/10/01 06:49:30;;;;;;;8.65;3.10;;;8.60;99.90;;;;;;5090581;28;20031;-68
2021/10/01 06:52:22;;;;;;;6.65;1.90;;;8.70;99.90;;;;;;5090662;28;20036;-68
2021/10/01 07:36:49;;;;;;;6.07;1.58;;;10.60;99.90;;;;;;5094256;28;20040;-68
2021/10/01 08:19:55;;;;;;;5.63;2.08;;;12.20;99.90;;;;;;5093832;28;20419;-69
2021/10/01 08:22:21;;;;;;;5.45;2.17;;;12.40;99.90;;;;;;5094064;28;20038;-68
2021/10/01 08:24:47;;;;;;;6.90;2.05;;;12.40;99.90;;;;;;5094065;28;20384;-68
2021/10/01 08:27:15;;;;;;;4.53;1.83;;;12.50;99.90;;;;;;5093874;28;20039;-68
2021/10/01 08:29:40;;;;;;;6.22;1.65;;;12.60;99.90;;;;;;5094225;28;20085;-68
2021/10/01 08:32:07;;;;;;;3.88;1.60;;;12.60;99.90;;;;;;5093567;28;20036;-69
2021/10/01 08:34:42;;;;;;;4.72;1.98;;;12.70;99.90;;;;;;5092262;28;20028;-69
2021/10/01 08:37:09;;;;;;;6.13;1.63;;;12.70;99.90;;;;;;5093568;28;20504;-70
2021/10/01 08:39:35;;;;;;;2.97;1.27;;;12.80;99.90;;;;;;5092366;28;20115;-69
2021/10/01 08:42:03;;;;;;;6.75;2.70;;;12.80;99.90;;;;;;5093567;28;20028;-69
2021/10/01 08:44:31;;;;;;;4.75;1.65;;;12.80;99.90;;;;;;5093937;28;20046;-69
2021/10/01 08:47:00;;;;;;;5.05;1.88;;;12.90;99.90;;;;;;5092078;28;20040;-70
2021/10/01 08:49:28;;;;;;;3.83;1.50;;;13.00;99.90;;;;;;5093575;28;20066;-69
2021/10/01 08:51:55;;;;;;;4.78;1.70;;;13.10;99.90;;;;;;5093378;28;20050;-69
2021/10/01 08:54:22;;;;;;;12.10;3.22;;;13.10;99.90;;;;;;5093438;28;20032;-70
2021/10/01 08:56:48;;;;;;;3.05;1.60;;;13.20;99.90;;;;;;5093533;28;20024;-70
2021/10/01 08:59:13;;;;;;;5.80;2.50;;;13.20;99.90;;;;;;5092481;28;20105;-70
2021/10/01 09:01:39;;;;;;;5.38;2.13;;;13.40;99.90;;;;;;5084238;28;20032;-71
2021/10/01 09:04:07;;;;;;;5.50;2.05;;;13.50;99.90;;;;;;5092576;28;20028;-70
2021/10/01 09:06:33;;;;;;;4.32;1.85;;;13.50;99.90;;;;;;5093523;28;20465;-71
2021/10/01 09:09:09;;;;;;;4.47;1.70;;;13.60;99.90;;;;;;5093425;28;20051;-71
2021/10/01 09:11:47;;;;;;;4.97;2.60;;;13.60;99.90;;;;;;5093376;28;20082;-71
2021/10/01 09:14:22;;;;;;;4.97;2.15;;;13.50;99.90;;;;;;5092910;28;20098;-71
2021/10/01 09:16:48;;;;;;;6.68;2.03;;;13.60;99.90;;;;;;5093168;28;20111;-70
2021/10/01 09:19:14;;;;;;;2.75;1.23;;;13.70;99.90;;;;;;5092737;28;20116;-70
2021/10/01 09:21:52;;;;;;;8.27;1.70;;;13.90;99.90;;;;;;5092633;28;20036;-70
2021/10/01 09:24:25;;;;;;;3.35;1.17;;;14.00;99.90;;;;;;5092912;28;20115;-69
2021/10/01 09:26:57;;;;;;;4.45;1.58;;;14.00;99.90;;;;;;5092753;28;20477;-70
2021/10/01 09:29:33;;;;;;;3.67;1.70;;;14.10;99.90;;;;;;5092741;28;20047;-69
2021/10/01 09:32:16;;;;;;;4.82;1.80;;;14.10;99.90;;;;;;5092598;28;20081;-70
2021/10/01 09:34:46;;;;;;;5.85;1.80;;;14.30;99.90;;;;;;5092661;28;20043;-70
2021/10/01 09:37:19;;;;;;;4.72;1.80;;;14.40;99.90;;;;;;5092473;28;20613;-70
2021/10/01 09:39:51;;;;;;;6.65;1.95;;;14.50;99.90;;;;;;5092766;28;20036;-70
2021/10/01 09:42:30;;;;;;;4.95;1.70;;;14.70;99.90;;;;;;5074621;28;20393;-70
2021/10/01 09:45:01;;;;;;;5.70;2.50;;;14.80;99.90;;;;;;5091561;28;20032;-70
2021/10/01 09:47:42;;;;;;;6.28;1.83;;;14.90;99.90;;;;;;5092089;28;20448;-70
2021/10/01 09:50:16;;;;;;;5.75;2.30;;;14.90;99.90;;;;;;5092357;28;20030;-70
2021/10/01 09:52:53;;;;;;;7.03;2.30;;;14.90;99.90;;;;;;5092287;28;20548;-70
2021/10/01 09:55:33;;;;;;;5.80;2.03;;;15.10;99.90;;;;;;5092161;28;20388;-70
2021/10/01 09:58:20;;;;;;;5.35;1.83;;;15.30;99.90;;;;;;5092371;28;20031;-70
2021/10/01 10:00:50;;;;;;;5.18;1.60;;;15.50;99.90;;;;;;5091100;28;20493;-70
2021/10/01 10:03:22;;;;;;;3.78;1.45;;;15.80;99.90;;;;;;5092312;28;20109;-70
2021/10/01 10:06:23;;;;;;;5.60;1.52;;;15.90;99.90;;;;;;5092385;28;20616;-70
2021/10/01 10:08:49;;;;;;;4.95;1.95;;;16.00;99.90;;;;;;5029696;28;20052;-71
2021/10/01 10:11:20;;;;;;;5.22;1.33;;;16.20;99.90;;;;;;5029411;28;20094;-71
2021/10/01 10:13:50;;;;;;;4.53;1.83;;;16.40;99.90;;;;;;5029819;28;20484;-70
2021/10/01 10:16:27;;;;;;;5.32;1.33;;;16.40;99.90;;;;;;5012224;28;20037;-70
2021/10/01 10:19:00;;;;;;;4.57;1.48;;;16.40;99.90;;;;;;5012439;28;20963;-69
2021/10/01 10:21:27;;;;;;;7.10;2.53;;;16.60;99.90;;;;;;5009899;28;20049;-71
2021/10/01 10:23:53;;;;;;;6.70;2.88;;;16.70;99.90;;;;;;5010052;28;20466;-70
2021/10/01 10:26:20;;;;;;;4.65;1.70;;;17.00;99.90;;;;;;5009814;28;20046;-70
2021/10/01 10:28:48;;;;;;;4.63;1.50;;;17.30;99.30;;;;;;5009789;28;20118;-71
2021/10/01 10:31:16;;;;;;;3.47;1.52;;;17.10;99.80;;;;;;5009423;28;20172;-71
2021/10/01 10:33:51;;;;;;;7.00;1.58;;;16.90;99.70;;;;;;4993820;28;20491;-70
2021/10/01 10:36:49;;;;;;;4.28;1.35;;;17.30;99.00;;;;;;5009818;28;20120;-69
2021/10/01 10:39:17;;;;;;;3.38;1.10;;;17.40;98.40;;;;;;4993940;28;20076;-70
2021/10/01 10:41:48;;;;;;;4.72;1.63;;;17.60;98.20;;;;;;5009682;28;20495;-70
2021/10/01 10:44:15;;;;;;;2.75;1.25;;;17.70;98.20;;;;;;5009701;28;20541;-71
2021/10/01 10:46:46;;;;;;;4.63;1.30;;;17.70;98.30;;;;;;5065929;28;20060;-72
2021/10/01 10:49:22;;;;;;;;;;;17.60;98.20;;;;;;5072070;28;20025;-68
2021/10/01 10:52:12;;;;;;;6.97;1.45;;;17.50;98.00;;;;;;5071404;28;19919;-72
2021/10/01 10:55:12;;;;;;;4.35;1.52;;;17.70;97.00;;;;;;5071787;28;20035;-69
2021/10/01 10:57:38;;;;;;;7.30;1.45;;;17.80;97.30;;;;;;5071532;28;20036;-70
2021/10/01 11:00:41;;;;;;;8.02;2.63;;;18.00;97.10;;;;;;5073413;28;20133;-69
2021/10/01 11:03:27;;;;;;;2.88;1.25;;;18.00;96.90;;;;;;5074604;28;20028;-70
2021/10/01 11:06:10;;;;;;;5.28;1.20;;;18.00;96.80;;;;;;5075453;28;20403;-70
2021/10/01 11:08:38;;;;;;;5.13;1.52;;;18.00;97.40;;;;;;5075524;28;20067;-70
2021/10/01 11:11:05;;;;;;;2.67;1.40;;;18.00;97.10;;;;;;5074964;28;20041;-70
2021/10/01 11:13:34;;;;;;;2.88;1.52;;;18.30;97.30;;;;;;5075243;28;20535;-70
2021/10/01 11:16:09;;;;;;;4.63;1.08;;;18.50;96.50;;;;;;5075226;28;20039;-69
2021/10/01 11:18:47;;;;;;;4.63;1.38;;;18.60;96.80;;;;;;5075282;28;20040;-69
2021/10/01 11:21:25;;;;;;;6.95;1.85;;;18.70;97.20;;;;;;5074770;28;20090;-70
2021/10/01 11:24:15;;;;;;;4.45;0.93;;;18.80;95.80;;;;;;5075013;28;20040;-69
2021/10/01 11:26:50;;;;;;;3.22;1.27;;;18.70;96.50;;;;;;5074835;28;20031;-70
2021/10/01 11:29:34;;;;;;;4.57;1.40;;;18.80;96.00;;;;;;5074511;28;20051;-70
2021/10/01 11:32:18;;;;;;;6.55;1.67;;;19.10;94.70;;;;;;5074598;28;20495;-70
2021/10/01 11:34:49;;;;;;;8.38;1.85;;;19.40;93.50;;;;;;5073608;28;20033;-70
2021/10/01 11:37:29;;;;;;;3.33;1.13;;;19.30;94.80;;;;;;5074621;28;20027;-70
2021/10/01 11:40:09;;;;;;;2.63;1.10;;;19.40;93.90;;;;;;5074466;28;20489;-70
2021/10/01 11:42:42;;;;;;;5.68;1.30;;;19.60;93.40;;;;;;5080143;28;20389;-69
2021/10/01 11:45:35;;;;;;;4.45;1.58;;;20.20;92.80;;;;;;5094581;28;20089;-72
2021/10/01 11:48:11;;;;;;;3.85;1.30;;;20.90;92.60;;;;;;5093877;28;20365;-72
2021/10/01 11:50:47;;;;;;;4.13;1.30;;;21.80;90.60;;;;;;5093292;28;20036;-77
2021/10/01 11:53:22;;;;;;;6.20;0.90;;;22.80;85.40;;;;;;5091026;28;20082;-74
2021/10/01 11:55:59;;;;;;;3.60;0.98;;;22.00;84.70;;;;;;5094499;28;20032;-74
2021/10/01 11:58:28;;;;;;;4.50;1.13;;;22.50;82.80;;;;;;5094488;28;20032;-74
2021/10/01 12:00:55;;;;;;;2.95;0.95;;;23.30;79.70;;;;;;5093618;28;20047;-74
2021/10/01 12:03:24;;;;;;;2.47;1.10;;;23.10;78.00;;;;;;5094339;28;20028;-74
2021/10/01 12:05:56;;;;;;;3.35;1.05;;;24.10;75.30;;;;;;5093161;28;20028;-74
2021/10/01 12:08:23;;;;;;;5.53;1.10;;;24.00;74.20;;;;;;5084361;28;20028;-74
2021/10/01 12:10:56;;;;;;;4.57;1.35;;;23.20;75.10;;;;;;5072848;28;20025;-74
2021/10/01 12:13:28;;;;;;;4.00;1.05;;;23.30;74.70;;;;;;5073410;28;20037;-75
2021/10/01 12:16:13;;;;;;;5.05;1.08;;;23.70;75.10;;;;;;5072212;28;20068;-77
2021/10/01 12:18:57;;;;;;;3.00;1.10;;;22.70;77.10;;;;;;5072322;28;20035;-74
2021/10/01 12:21:28;;;;;;;3.53;1.13;;;21.80;78.40;;;;;;5072710;28;20130;-74
2021/10/01 12:24:14;;;;;;;2.47;0.90;;;23.10;74.50;;;;;;5072753;28;20060;-74
2021/10/01 12:26:48;;;;;;;2.42;0.70;;;22.50;74.70;;;;;;5073653;28;20036;-74
2021/10/01 12:29:14;;;;;;;6.78;0.95;;;23.20;75.00;;;;;;5081569;28;20036;-74
2021/10/01 12:31:41;;;;;;;3.15;0.90;;;23.70;74.80;;;;;;5073536;28;20558;-75
2021/10/01 12:34:26;;;;;;;3.17;0.98;;;23.80;74.90;;;;;;5072709;28;20374;-76
2021/10/01 12:37:04;;;;;;;1.95;0.95;;;24.40;74.10;;;;;;5057837;28;20111;-75
2021/10/01 12:39:33;;;;;;;2.47;1.00;;;24.30;72.30;;;;;;5073025;28;20033;-75
2021/10/01 12:42:05;;;;;;;12.50;1.23;;;23.60;72.90;;;;;;5073537;28;20037;-74
2021/10/01 12:44:38;;;;;;;4.05;1.02;;;23.60;72.10;;;;;;5072294;28;20035;-74
2021/10/01 12:47:19;;;;;;;6.97;1.88;;;23.50;71.60;;;;;;5087576;28;20064;-74
2021/10/01 12:50:12;;;;;;;3.53;1.15;;;23.40;71.20;;;;;;5092437;28;20389;-75
2021/10/01 12:52:41;;;;;;;1.35;0.63;;;23.00;71.60;;;;;;5091972;28;20480;-75
2021/10/01 12:55:10;;;;;;;1.55;0.73;;;22.80;71.00;;;;;;5092156;28;20031;-75
2021/10/01 12:57:45;;;;;;;2.75;0.90;;;22.70;71.60;;;;;;5090486;28;20065;-73
2021/10/01 13:00:28;;;;;;;2.85;0.75;;;22.80;71.10;;;;;;5083787;28;20028;-74
2021/10/01 13:03:02;;;;;;;2.33;0.75;;;23.10;72.60;;;;;;5087222;28;20064;-74
2021/10/01 13:05:35;;;;;;;3.22;0.90;;;23.10;72.40;;;;;;5077109;28;20107;-76
2021/10/01 13:08:08;;;;;;;31.65;3.55;;;23.20;69.70;;;;;;5084570;28;20366;-74
2021/10/01 13:10:54;;;;;;;2.85;0.80;;;22.60;72.80;;;;;;5093359;28;20119;-74
2021/10/01 13:13:34;;;;;;;2.85;0.90;;;22.40;72.80;;;;;;5081981;28;20405;-75
2021/10/01 13:16:04;;;;;;;4.22;1.17;;;22.10;73.20;;;;;;5092494;28;20399;-75
2021/10/01 13:18:32;;;;;;;1.60;0.70;;;22.10;75.00;;;;;;5093182;28;20067;-75
2021/10/01 13:21:24;;;;;;;1.95;0.82;;;22.10;74.30;;;;;;5092635;28;20078;-73
2021/10/01 13:23:56;;;;;;;3.38;1.20;;;21.80;75.10;;;;;;5093095;28;20490;-75
2021/10/01 13:26:26;;;;;;;3.83;0.90;;;22.10;73.50;;;;;;5093017;28;20040;-74
2021/10/01 13:29:05;;;;;;;1.63;0.75;;;21.60;74.90;;;;;;5093015;28;20384;-73
2021/10/01 13:31:47;;;;;;;4.88;1.20;;;21.70;76.10;;;;;;5092737;28;20040;-73
2021/10/01 13:34:15;;;;;;;4.03;1.10;;;21.90;77.00;;;;;;5092507;28;20041;-74
2021/10/01 13:36:42;;;;;;;3.08;0.90;;;22.00;76.20;;;;;;5092660;28;20115;-74
2021/10/01 13:39:09;;;;;;;4.85;1.02;;;22.10;76.50;;;;;;5092903;28;20055;-73
2021/10/01 13:41:35;;;;;;;2.78;0.93;;;22.10;75.60;;;;;;5074804;28;20032;-76
2021/10/01 13:44:01;;;;;;;2.33;0.60;;;22.20;76.10;;;;;;5092531;28;20599;-74
2021/10/01 13:46:28;;;;;;;3.00;0.93;;;22.40;74.90;;;;;;5092280;28;20079;-74
2021/10/01 13:48:54;;;;;;;3.20;1.05;;;22.10;75.50;;;;;;5091390;28;20118;-74
2021/10/01 13:51:20;;;;;;;3.90;1.20;;;22.30;76.10;;;;;;5092120;28;20122;-74
2021/10/01 13:53:46;;;;;;;1.42;0.68;;;22.00;76.50;;;;;;5092810;28;20036;-73
2021/10/01 13:56:13;;;;;;;2.10;0.90;;;22.20;77.20;;;;;;5091040;28;20059;-58
2021/10/01 13:58:38;;;;;;;3.60;1.05;;;22.40;77.00;;;;;;5092665;28;20056;-74
2021/10/01 14:01:05;;;;;;;2.47;0.70;;;22.10;77.60;;;;;;5091257;28;20074;-74
2021/10/01 14:03:31;;;;;;;4.30;0.85;;;22.10;78.10;;;;;;5092145;28;20385;-74
2021/10/01 14:05:57;;;;;;;3.67;0.90;;;22.20;77.10;;;;;;5090286;28;20396;-74
2021/10/01 14:08:24;;;;;;;2.80;0.80;;;22.00;77.10;;;;;;5107971;28;20035;-74
2021/10/01 14:10:50;;;;;;;3.97;0.80;;;22.10;77.80;;;;;;5090186;28;20103;-72
2021/10/01 14:13:17;;;;;;;5.07;0.80;;;22.30;78.10;;;;;;5079653;28;20098;-72
2021/10/01 14:15:47;;;;;;;6.20;1.20;;;22.50;77.00;;;;;;5087826;28;20480;-72
2021/10/01 14:18:13;;;;;;;4.00;1.25;;;22.30;77.60;;;;;;5088932;28;20028;-72
2021/10/01 14:22:09;;;;;;;2.15;1.15;;;22.40;79.00;;;;;;5089805;28;20040;-71
2021/10/01 14:24:37;;;;;;;2.97;0.95;;;22.90;76.20;;;;;;5092041;28;20135;-71
2021/10/01 14:27:05;;;;;;;3.30;0.80;;;23.20;75.50;;;;;;5092055;28;20040;-71
2021/10/01 14:29:31;;;;;;;2.05;0.68;;;23.10;74.60;;;;;;5091832;28;20111;-71
2021/10/01 14:31:57;;;;;;;3.67;0.90;;;22.90;74.70;;;;;;5091999;28;20028;-72
2021/10/01 14:34:23;;;;;;;4.03;1.00;;;23.00;75.40;;;;;;5094767;28;20020;-72
2021/10/01 14:36:50;;;;;;;3.75;0.80;;;22.80;76.20;;;;;;5095956;28;20089;-72
2021/10/01 14:39:15;;;;;;;4.18;0.98;;;22.60;77.20;;;;;;5077730;28;20032;-72